EGPM/SCS METAR and TAF weather

Enter ICAO airport designator
Station Type Date Time Source
EGPM METAR 2019/02/23 23:20 UTC NOAA

EGPM 232320Z AUTO 24019KT 9999 NCD 08/07 Q1024


Station Type Date Time Source
EGPM Decoded METAR 2019/02/23 23:20 UTC NOAA

Scatsa / Shetland Island, United Kingdom (EGPM) 60-26N 001-18W
Feb 23, 2019 - 06:20 PM EST / 2019.02.23 2320 UTC
Wind: from the WSW (240 degrees) at 22 MPH (19 KT):0
Visibility: greater than 7 mile(s):0
Temperature: 46 F (8 C)
Dew Point: 44 F (7 C)
Relative Humidity: 93%
Pressure (altimeter): 30.24 in. Hg (1024 hPa)
ob: EGPM 232320Z AUTO 24019KT 9999 NCD 08/07 Q1024
cycle: 23

Station Type Date Time Source
EGPM TAF 2013/04/29 03:39 UTC NOAA

TAF TAF EGPM 290337Z 2903/2915 22005KT 9999 SCT030 PROB30
TEMPO 2903/2906 7000 SHRAGS
BECMG 2906/2909 32015KT PROB40
TEMPO 2906/2915 6000 SHRA SHGS BKN012CB


Example: see airport list